Time;durP1;ratioP1;P1;durP2;ratioP2;P2;SDS_P1;SDS_P2;PMS_P1;PMS_P2;Temp;Humidity;BMP_temperature;BMP_pressure;BME280_temperature;BME280_humidity;BME280_pressure;Samples;Min_cycle;Max_cycle;Signal;HPM_P1;HPM_P2
2021/05/02 00:01:15;;;;;;;80.37;41.33;;;10.30;99.90;;;;;;4432440;28;659334;-71
2021/05/02 00:04:03;;;;;;;79.00;40.20;;;10.30;99.90;;;;;;4438257;28;659282;-72
2021/05/02 00:06:51;;;;;;;75.07;39.60;;;10.30;99.90;;;;;;4447907;28;659830;-71
2021/05/02 00:09:38;;;;;;;82.00;39.60;;;10.20;99.90;;;;;;4443877;28;658536;-72
2021/05/02 00:12:25;;;;;;;86.90;41.07;;;10.20;99.90;;;;;;4446186;28;659674;-71
2021/05/02 00:15:13;;;;;;;91.10;43.23;;;10.20;99.90;;;;;;4445692;28;658698;-72
2021/05/02 00:18:00;;;;;;;83.77;39.37;;;10.20;99.90;;;;;;4456989;28;659922;-71
2021/05/02 00:20:47;;;;;;;88.60;43.63;;;10.10;99.90;;;;;;4433382;28;658679;-71
2021/05/02 00:23:36;;;;;;;87.33;43.07;;;10.10;99.90;;;;;;4465042;28;659185;-72
2021/05/02 00:26:24;;;;;;;89.47;43.20;;;10.10;99.90;;;;;;4428344;28;659261;-71
2021/05/02 00:29:11;;;;;;;91.20;43.40;;;10.10;99.90;;;;;;4453148;28;658496;-72
2021/05/02 00:31:58;;;;;;;88.33;42.40;;;10.10;99.90;;;;;;4442193;28;658473;-71
2021/05/02 00:34:45;;;;;;;88.20;42.03;;;10.10;99.90;;;;;;4452528;28;659179;-71
2021/05/02 00:37:32;;;;;;;94.70;42.50;;;10.00;99.90;;;;;;4445307;28;658478;-72
2021/05/02 00:40:21;;;;;;;101.73;44.73;;;10.00;99.90;;;;;;4448893;28;659313;-71
2021/05/02 00:43:09;;;;;;;102.20;45.03;;;10.00;99.90;;;;;;4430853;28;660415;-72
2021/05/02 00:45:58;;;;;;;99.87;44.83;;;10.00;99.90;;;;;;4459691;28;659526;-71
2021/05/02 00:48:49;;;;;;;100.00;43.93;;;10.00;99.90;;;;;;4437238;28;659565;-71
2021/05/02 00:51:39;;;;;;;106.53;45.73;;;9.90;99.90;;;;;;4440783;28;659908;-71
2021/05/02 00:54:33;;;;;;;100.30;44.07;;;9.90;99.90;;;;;;4432291;28;658879;-71
2021/05/02 00:57:23;;;;;;;101.50;43.87;;;9.90;99.90;;;;;;4432387;28;658730;-71
2021/05/02 01:00:11;;;;;;;96.47;40.90;;;9.90;99.90;;;;;;4425275;28;659293;-71
2021/05/02 01:02:59;;;;;;;96.40;43.65;;;9.90;99.90;;;;;;4431753;28;657576;-71
2021/05/02 01:05:46;;;;;;;103.93;44.60;;;9.90;99.90;;;;;;4460557;28;657803;-71
2021/05/02 01:08:35;;;;;;;102.03;45.03;;;9.90;99.90;;;;;;4429310;28;658559;-71
2021/05/02 01:11:21;;;;;;;97.87;43.70;;;9.90;99.90;;;;;;4452387;28;658387;-71
2021/05/02 01:14:12;;;;;;;96.20;42.57;;;9.90;99.90;;;;;;4438783;28;657616;-71
2021/05/02 01:16:59;;;;;;;99.83;44.43;;;9.80;99.90;;;;;;4437730;28;658934;-71
2021/05/02 01:19:47;;;;;;;98.87;42.10;;;9.90;99.90;;;;;;4452608;28;657497;-71
2021/05/02 01:22:35;;;;;;;91.23;41.50;;;9.80;99.90;;;;;;4442009;28;659172;-72
2021/05/02 01:25:22;;;;;;;89.03;38.60;;;9.80;99.90;;;;;;4465885;28;657384;-71
2021/05/02 01:28:09;;;;;;;93.07;40.67;;;9.80;99.90;;;;;;4436115;28;658240;-71
2021/05/02 01:30:56;;;;;;;94.10;41.23;;;9.80;99.90;;;;;;4448873;28;658481;-71
2021/05/02 01:33:43;;;;;;;90.63;41.20;;;9.80;99.90;;;;;;4427990;28;657736;-71
2021/05/02 01:36:30;;;;;;;89.78;39.53;;;9.80;99.90;;;;;;4463577;28;657918;-72
2021/05/02 01:39:17;;;;;;;95.27;41.40;;;9.80;99.90;;;;;;4436173;28;658276;-72
2021/05/02 01:42:06;;;;;;;83.40;35.47;;;9.80;99.90;;;;;;4461139;28;657403;-71
2021/05/02 01:44:53;;;;;;;100.10;41.83;;;9.80;99.90;;;;;;4438326;28;657926;-71
2021/05/02 01:47:43;;;;;;;83.27;39.07;;;9.80;99.90;;;;;;4440159;28;659326;-71
2021/05/02 01:50:32;;;;;;;91.05;39.33;;;9.70;99.90;;;;;;4423701;28;659371;-71
2021/05/02 01:53:19;;;;;;;81.23;36.13;;;9.70;99.90;;;;;;4425505;28;659078;-72
2021/05/02 01:56:06;;;;;;;84.43;38.80;;;9.70;99.90;;;;;;4446135;28;658108;-71
2021/05/02 01:58:54;;;;;;;81.43;37.20;;;9.70;99.90;;;;;;4421333;28;658155;-72
2021/05/02 02:01:41;;;;;;;84.10;36.53;;;9.70;99.90;;;;;;4448894;28;657912;-71
2021/05/02 02:04:29;;;;;;;70.97;34.53;;;9.70;99.90;;;;;;4421397;28;657854;-72
2021/05/02 02:07:16;;;;;;;74.73;34.37;;;9.70;99.90;;;;;;4448344;28;657488;-72
2021/05/02 02:10:03;;;;;;;78.07;35.33;;;9.70;99.90;;;;;;4415958;28;657769;-72
2021/05/02 02:12:50;;;;;;;78.23;35.20;;;9.70;99.90;;;;;;4449463;28;657639;-72
2021/05/02 02:15:38;;;;;;;73.13;35.15;;;9.70;99.90;;;;;;4433667;28;658083;-73
2021/05/02 02:18:25;;;;;;;65.47;33.53;;;9.70;99.90;;;;;;4447611;28;658650;-72
2021/05/02 02:21:13;;;;;;;77.17;35.20;;;9.70;99.90;;;;;;4428144;28;658096;-72
2021/05/02 02:24:00;;;;;;;66.23;31.43;;;9.70;99.90;;;;;;4451428;28;658752;-71
2021/05/02 02:26:51;;;;;;;75.17;35.20;;;9.70;99.90;;;;;;4428647;28;658366;-72
2021/05/02 02:29:41;;;;;;;73.53;34.30;;;9.70;99.90;;;;;;4421476;28;657505;-72
2021/05/02 02:32:29;;;;;;;74.07;34.07;;;9.80;99.90;;;;;;4425649;28;657372;-71
2021/05/02 02:35:17;;;;;;;65.37;33.80;;;9.80;99.90;;;;;;4439688;28;657835;-71
2021/05/02 02:38:05;;;;;;;64.17;29.17;;;9.80;99.90;;;;;;4424813;28;658831;-71
2021/05/02 02:40:54;;;;;;;66.93;33.70;;;9.80;99.90;;;;;;4427532;28;657917;-72
2021/05/02 02:43:48;;;;;;;66.38;29.95;;;9.80;99.90;;;;;;4447113;28;657073;-71
2021/05/02 02:46:37;;;;;;;71.13;31.50;;;9.80;99.90;;;;;;4425337;28;658043;-72
2021/05/02 02:49:25;;;;;;;59.58;28.70;;;9.80;99.90;;;;;;4429899;28;658144;-72
2021/05/02 02:52:13;;;;;;;61.87;31.20;;;9.80;99.90;;;;;;4432817;28;657972;-73
2021/05/02 02:55:07;;;;;;;68.83;31.50;;;9.80;99.90;;;;;;4467592;28;658588;-71
2021/05/02 02:57:55;;;;;;;63.67;30.07;;;9.80;99.90;;;;;;4409661;28;658780;-72
2021/05/02 03:00:42;;;;;;;66.17;30.20;;;9.80;99.90;;;;;;4437138;28;657300;-73
2021/05/02 03:03:29;;;;;;;61.83;30.53;;;9.80;99.90;;;;;;4456269;28;658399;-71
2021/05/02 03:06:17;;;;;;;55.83;27.10;;;9.80;99.90;;;;;;4454465;28;658188;-71
2021/05/02 03:09:05;;;;;;;56.80;28.63;;;9.80;99.90;;;;;;4433620;28;658671;-71
2021/05/02 03:11:52;;;;;;;55.80;28.00;;;9.80;99.90;;;;;;4453711;28;657488;-71
2021/05/02 03:14:39;;;;;;;59.63;28.27;;;9.80;99.90;;;;;;4455215;28;657842;-70
2021/05/02 03:17:29;;;;;;;57.83;27.97;;;9.80;99.90;;;;;;4447550;28;658184;-70
2021/05/02 03:20:16;;;;;;;63.37;27.93;;;9.80;99.90;;;;;;4442233;28;658559;-70
2021/05/02 03:23:08;;;;;;;55.07;27.00;;;9.80;99.90;;;;;;4430283;28;657749;-71
2021/05/02 03:25:57;;;;;;;56.93;28.63;;;9.80;99.90;;;;;;4433584;28;658420;-71
2021/05/02 03:28:44;;;;;;;53.70;29.03;;;9.80;99.90;;;;;;4428812;28;657454;-70
2021/05/02 03:31:32;;;;;;;55.20;28.57;;;9.80;99.90;;;;;;4458584;28;657285;-70
2021/05/02 03:34:19;;;;;;;48.20;25.80;;;9.80;99.90;;;;;;4423769;28;658003;-70
2021/05/02 03:37:08;;;;;;;46.47;24.43;;;9.80;99.90;;;;;;4460073;28;657379;-70
2021/05/02 03:39:56;;;;;;;51.60;25.70;;;9.80;99.90;;;;;;4439173;28;658915;-70
2021/05/02 03:42:43;;;;;;;48.50;26.03;;;9.80;99.90;;;;;;4428409;28;657836;-70
2021/05/02 03:45:30;;;;;;;48.33;24.77;;;9.80;99.90;;;;;;4447033;28;657769;-70
2021/05/02 03:48:17;;;;;;;47.07;23.47;;;9.90;99.90;;;;;;4450757;28;657623;-72
2021/05/02 03:51:07;;;;;;;46.20;23.73;;;9.80;99.90;;;;;;4456626;28;657792;-70
2021/05/02 03:53:54;;;;;;;53.60;26.00;;;9.90;99.90;;;;;;4424845;28;658519;-70
2021/05/02 03:56:43;;;;;;;49.80;24.80;;;9.90;99.90;;;;;;4462523;28;657581;-70
2021/05/02 03:59:30;;;;;;;48.20;24.43;;;9.90;99.90;;;;;;4432412;28;658316;-71
2021/05/02 04:02:17;;;;;;;49.00;22.90;;;10.00;99.90;;;;;;4438156;28;657889;-72
2021/05/02 04:05:05;;;;;;;46.00;23.15;;;10.00;99.90;;;;;;4457945;28;658618;-70
2021/05/02 04:07:52;;;;;;;44.72;22.88;;;10.00;99.90;;;;;;4426174;28;659334;-71
2021/05/02 04:10:39;;;;;;;39.73;20.87;;;10.00;99.90;;;;;;4445261;28;659490;-71
2021/05/02 04:13:27;;;;;;;47.13;22.87;;;10.10;99.90;;;;;;4463470;28;658688;-70
2021/05/02 04:16:15;;;;;;;42.57;22.03;;;10.10;99.90;;;;;;4426253;28;659060;-70
2021/05/02 04:19:03;;;;;;;47.53;23.93;;;10.10;99.90;;;;;;4441178;28;658695;-72
2021/05/02 04:21:50;;;;;;;49.90;24.17;;;10.10;99.90;;;;;;4446892;28;659237;-70
2021/05/02 04:24:37;;;;;;;44.40;23.13;;;10.10;99.90;;;;;;4460004;28;658468;-71
2021/05/02 04:27:24;;;;;;;43.53;22.70;;;10.20;99.90;;;;;;4456171;28;659191;-70
2021/05/02 04:30:14;;;;;;;47.97;24.70;;;10.10;99.90;;;;;;4449449;28;658945;-70
2021/05/02 04:33:01;;;;;;;41.33;23.20;;;10.10;99.90;;;;;;4440846;28;659145;-70
2021/05/02 04:35:48;;;;;;;44.03;23.73;;;10.20;99.90;;;;;;4426755;28;658742;-71
2021/05/02 04:38:34;;;;;;;43.00;23.07;;;10.20;99.90;;;;;;4452424;28;659489;-69
2021/05/02 04:41:21;;;;;;;45.10;23.33;;;10.10;99.90;;;;;;4459395;28;658601;-70
2021/05/02 04:44:08;;;;;;;45.60;23.10;;;10.20;99.90;;;;;;4432580;28;658757;-70
2021/05/02 04:46:56;;;;;;;45.10;22.57;;;10.10;99.90;;;;;;4436246;28;659954;-69
2021/05/02 04:49:43;;;;;;;44.30;23.43;;;10.10;99.90;;;;;;4417968;28;659298;-70
2021/05/02 04:52:30;;;;;;;45.80;22.80;;;10.10;99.90;;;;;;4439285;28;659662;-69
2021/05/02 04:55:18;;;;;;;43.23;21.20;;;10.10;99.90;;;;;;4408043;28;658681;-69
2021/05/02 04:58:06;;;;;;;42.03;21.93;;;10.10;99.90;;;;;;4437127;28;659557;-69
2021/05/02 05:00:53;;;;;;;47.53;21.83;;;10.10;99.90;;;;;;4410624;28;658889;-70
2021/05/02 05:03:42;;;;;;;43.40;21.00;;;10.10;99.90;;;;;;4438843;28;659255;-69
2021/05/02 05:06:29;;;;;;;43.73;20.60;;;10.10;99.90;;;;;;4418181;28;658981;-69
2021/05/02 05:09:16;;;;;;;42.50;21.47;;;10.00;99.90;;;;;;4444792;28;658845;-69
2021/05/02 05:12:03;;;;;;;41.37;22.17;;;10.00;99.90;;;;;;4408668;28;658375;-70
2021/05/02 05:14:51;;;;;;;37.50;20.83;;;10.00;99.90;;;;;;4429061;28;659797;-69
2021/05/02 05:17:38;;;;;;;38.17;20.70;;;10.00;99.90;;;;;;4410205;28;658635;-70
2021/05/02 05:20:26;;;;;;;34.87;18.93;;;10.00;99.90;;;;;;4428970;28;658803;-69
2021/05/02 05:23:14;;;;;;;36.13;18.60;;;10.00;99.90;;;;;;4408748;28;658871;-69
2021/05/02 05:26:01;;;;;;;41.33;17.63;;;10.00;99.90;;;;;;4440686;28;659345;-69
2021/05/02 05:28:48;;;;;;;29.63;17.33;;;10.00;99.90;;;;;;4427293;28;658781;-70
2021/05/02 05:31:36;;;;;;;28.03;16.27;;;10.00;99.90;;;;;;4432598;28;659628;-69
2021/05/02 05:34:23;;;;;;;44.97;16.60;;;9.90;99.90;;;;;;4419003;28;658582;-69
2021/05/02 05:37:11;;;;;;;37.77;15.70;;;9.90;99.90;;;;;;4438689;28;658059;-69
2021/05/02 05:39:58;;;;;;;33.50;14.60;;;9.90;99.90;;;;;;4425172;28;657503;-71
2021/05/02 05:42:45;;;;;;;28.73;14.50;;;9.90;99.90;;;;;;4435387;28;658009;-70
2021/05/02 05:45:33;;;;;;;39.00;15.93;;;10.00;99.90;;;;;;4427812;28;657445;-71
2021/05/02 05:48:20;;;;;;;149.13;28.03;;;9.90;99.90;;;;;;4452789;28;660432;-70
2021/05/02 05:51:09;;;;;;;119.70;43.25;;;10.00;99.90;;;;;;4440591;28;659025;-71
2021/05/02 05:54:13;;;;;;;65.70;33.40;;;10.00;99.90;;;;;;4459527;28;660094;-71
2021/05/02 05:57:01;;;;;;;27.80;15.60;;;10.00;99.90;;;;;;4441726;28;659199;-70
2021/05/02 05:59:49;;;;;;;23.70;14.02;;;10.10;99.90;;;;;;4446293;28;659160;-71
2021/05/02 06:02:37;;;;;;;64.00;39.87;;;10.10;99.90;;;;;;4469296;28;658620;-70
2021/05/02 06:05:38;;;;;;;20.87;11.73;;;10.10;99.90;;;;;;4446763;27;659683;-68
2021/05/02 06:08:32;;;;;;;20.37;12.67;;;10.10;99.90;;;;;;4443453;27;659198;-69
2021/05/02 06:11:22;;;;;;;19.65;11.00;;;10.10;99.90;;;;;;4428487;28;659134;-70
2021/05/02 06:14:11;;;;;;;16.33;9.97;;;10.10;99.90;;;;;;4432152;28;659863;-69
2021/05/02 06:16:59;;;;;;;13.90;8.23;;;10.10;99.90;;;;;;4438941;28;657636;-69
2021/05/02 06:19:47;;;;;;;15.65;9.77;;;10.10;99.90;;;;;;4454608;28;657864;-71
2021/05/02 06:22:35;;;;;;;29.77;16.50;;;10.10;99.90;;;;;;4440011;28;658661;-70
2021/05/02 06:25:23;;;;;;;14.40;8.98;;;10.10;99.90;;;;;;4445295;28;659316;-72
2021/05/02 06:28:11;;;;;;;15.03;8.97;;;10.10;99.90;;;;;;4456652;28;659085;-70
2021/05/02 06:30:58;;;;;;;17.63;9.67;;;10.10;99.90;;;;;;4444999;28;657625;-71
2021/05/02 06:33:45;;;;;;;17.17;10.10;;;10.10;99.90;;;;;;4453931;28;657932;-71
2021/05/02 06:36:32;;;;;;;23.90;14.57;;;10.10;99.90;;;;;;4438216;28;658739;-73
2021/05/02 06:39:20;;;;;;;16.67;10.90;;;10.20;99.90;;;;;;4456122;28;658802;-71
2021/05/02 06:42:07;;;;;;;19.23;10.83;;;10.20;99.90;;;;;;4447216;28;658552;-72
2021/05/02 06:44:55;;;;;;;19.00;12.30;;;10.20;99.90;;;;;;4454029;28;659845;-71
2021/05/02 06:47:43;;;;;;;12.47;8.03;;;10.30;99.90;;;;;;4433202;28;658918;-72
2021/05/02 06:50:30;;;;;;;35.80;18.30;;;10.40;99.90;;;;;;4451595;28;657936;-72
2021/05/02 06:53:17;;;;;;;20.15;12.43;;;10.40;99.90;;;;;;4435377;28;658799;-72
2021/05/02 06:56:05;;;;;;;20.63;13.13;;;10.50;99.90;;;;;;4450396;28;658960;-71
2021/05/02 06:58:52;;;;;;;18.03;11.40;;;10.60;99.90;;;;;;4437709;28;658382;-69
2021/05/02 07:01:40;;;;;;;15.77;9.53;;;10.70;99.90;;;;;;4459864;28;658188;-69
2021/05/02 07:04:31;;;;;;;19.67;12.27;;;10.80;99.90;;;;;;4435816;28;657462;-69
2021/05/02 07:07:19;;;;;;;23.13;13.13;;;10.90;99.90;;;;;;4435761;28;658690;-69
2021/05/02 07:10:07;;;;;;;18.23;10.73;;;11.10;99.90;;;;;;4462509;28;659211;-69
2021/05/02 07:12:54;;;;;;;15.00;8.63;;;11.10;99.90;;;;;;4423388;28;659917;-68
2021/05/02 07:15:41;;;;;;;12.07;7.37;;;11.30;99.90;;;;;;4459546;28;657929;-70
2021/05/02 07:18:34;;;;;;;8.43;5.67;;;11.40;99.90;;;;;;4437000;28;657252;-69
2021/05/02 07:21:21;;;;;;;9.63;5.20;;;11.50;99.90;;;;;;4436718;28;656461;-71
2021/05/02 07:24:09;;;;;;;7.17;4.40;;;11.60;99.90;;;;;;4430468;28;656721;-71
2021/05/02 07:26:56;;;;;;;8.20;4.60;;;11.60;99.90;;;;;;4450156;28;656384;-71
2021/05/02 07:29:43;;;;;;;6.73;4.97;;;11.60;99.90;;;;;;4433874;28;656196;-69
2021/05/02 07:32:30;;;;;;;7.70;5.33;;;11.60;99.90;;;;;;4461516;28;657452;-71
2021/05/02 07:35:19;;;;;;;13.20;7.27;;;11.60;99.90;;;;;;4436758;28;656447;-69
2021/05/02 07:38:06;;;;;;;8.50;6.13;;;11.50;99.90;;;;;;4452929;28;658269;-70
2021/05/02 07:40:53;;;;;;;9.67;6.87;;;11.50;99.90;;;;;;4438682;28;657002;-71
2021/05/02 07:43:40;;;;;;;9.15;6.57;;;11.50;99.90;;;;;;4466344;28;656558;-70
2021/05/02 07:46:28;;;;;;;12.93;7.53;;;11.40;99.90;;;;;;4449692;28;656267;-69
2021/05/02 07:49:15;;;;;;;10.80;7.33;;;11.40;99.90;;;;;;4461712;28;658084;-71
2021/05/02 07:52:04;;;;;;;12.87;7.57;;;11.50;99.90;;;;;;4429886;28;657612;-72
2021/05/02 07:54:52;;;;;;;13.30;7.60;;;11.40;99.90;;;;;;4447661;28;656913;-71
2021/05/02 07:57:39;;;;;;;13.77;8.07;;;11.50;99.90;;;;;;4435377;28;660266;-73
2021/05/02 08:00:26;;;;;;;13.70;7.93;;;11.50;99.90;;;;;;4460615;27;657984;-72
2021/05/02 08:03:14;;;;;;;12.80;7.70;;;11.50;99.90;;;;;;4435417;28;657256;-71
2021/05/02 08:06:01;;;;;;;14.27;7.93;;;11.50;99.90;;;;;;4457233;28;657683;-71
2021/05/02 08:08:49;;;;;;;12.87;8.57;;;11.60;99.90;;;;;;4437549;28;657787;-71
2021/05/02 08:11:37;;;;;;;11.63;7.53;;;11.60;99.90;;;;;;4450932;28;657131;-70
2021/05/02 08:14:24;;;;;;;12.80;8.60;;;11.60;99.90;;;;;;4434984;28;658956;-71
2021/05/02 08:17:12;;;;;;;12.77;9.07;;;11.60;99.90;;;;;;4457041;28;657449;-71
2021/05/02 08:19:59;;;;;;;15.30;10.20;;;11.50;99.90;;;;;;4424381;28;658163;-71
2021/05/02 08:22:46;;;;;;;13.43;9.17;;;11.60;99.90;;;;;;4446290;28;658577;-71
2021/05/02 08:25:35;;;;;;;12.40;8.30;;;11.60;99.90;;;;;;4426775;28;657833;-71
2021/05/02 08:28:23;;;;;;;11.63;8.70;;;11.60;99.90;;;;;;4454898;28;657973;-71
2021/05/02 08:31:11;;;;;;;14.20;9.20;;;11.70;99.90;;;;;;4452733;28;658359;-71
2021/05/02 08:33:59;;;;;;;14.43;9.40;;;11.80;99.90;;;;;;4425614;28;657743;-71
2021/05/02 08:36:46;;;;;;;15.63;9.60;;;11.80;99.90;;;;;;4458781;28;658391;-71
2021/05/02 08:39:33;;;;;;;15.67;9.77;;;11.80;99.90;;;;;;4435712;28;657308;-72
2021/05/02 08:42:22;;;;;;;15.63;10.00;;;11.90;99.90;;;;;;4459332;28;657767;-71
2021/05/02 08:45:09;;;;;;;14.83;9.50;;;11.90;99.90;;;;;;4436246;28;659383;-71
2021/05/02 08:47:57;;;;;;;15.40;10.00;;;11.80;99.90;;;;;;4458360;28;657479;-70
2021/05/02 08:50:45;;;;;;;17.47;11.57;;;11.80;99.90;;;;;;4434028;28;659269;-70
2021/05/02 08:53:33;;;;;;;15.43;10.57;;;12.10;99.90;;;;;;4432430;28;658499;-72
2021/05/02 08:56:20;;;;;;;16.50;11.40;;;12.30;99.90;;;;;;4451085;28;659570;-70
2021/05/02 08:59:10;;;;;;;14.90;10.87;;;12.60;99.90;;;;;;4448065;27;658248;-72
2021/05/02 09:01:57;;;;;;;15.60;10.33;;;12.70;99.90;;;;;;4459851;28;658632;-71
2021/05/02 09:04:52;;;;;;;12.60;9.60;;;12.80;99.90;;;;;;4434042;28;660227;-71
2021/05/02 09:07:42;;;;;;;13.87;9.57;;;13.00;99.90;;;;;;4408268;28;658199;-71
2021/05/02 09:10:34;;;;;;;14.05;9.35;;;12.90;99.90;;;;;;4431688;28;657889;-72
2021/05/02 09:13:21;;;;;;;16.47;10.53;;;12.90;99.90;;;;;;4434494;28;658583;-71
2021/05/02 09:16:09;;;;;;;11.27;7.40;;;12.80;99.90;;;;;;4441704;28;658513;-68
2021/05/02 09:19:00;;;;;;;20.73;11.60;;;12.70;99.90;;;;;;4458800;28;658284;-69
2021/05/02 09:21:47;;;;;;;20.97;13.33;;;12.50;99.90;;;;;;4435709;28;659074;-66
2021/05/02 09:24:34;;;;;;;22.03;13.43;;;12.30;99.90;;;;;;4455944;28;660055;-67
2021/05/02 09:27:21;;;;;;;25.17;14.73;;;12.20;99.90;;;;;;4458224;28;659048;-67
2021/05/02 09:30:15;;;;;;;36.47;20.07;;;12.10;99.90;;;;;;4431727;28;659153;-67
2021/05/02 09:33:03;;;;;;;32.83;17.60;;;12.10;99.90;;;;;;4414475;28;659421;-67
2021/05/02 09:35:50;;;;;;;39.60;22.10;;;12.00;99.90;;;;;;4456425;28;660329;-67
2021/05/02 09:38:38;;;;;;;41.77;21.67;;;12.00;99.90;;;;;;4441153;28;658441;-67
2021/05/02 09:41:25;;;;;;;46.57;25.60;;;12.00;99.90;;;;;;4458928;28;659252;-67
2021/05/02 09:44:12;;;;;;;46.45;27.08;;;12.00;99.90;;;;;;4434611;28;658788;-67
2021/05/02 09:47:18;;;;;;;47.95;26.88;;;11.90;99.90;;;;;;4467346;28;659067;-67
2021/05/02 09:50:17;;;;;;;47.03;27.27;;;11.90;99.90;;;;;;4445190;28;658560;-67
2021/05/02 09:53:06;;;;;;;53.63;29.10;;;11.90;99.90;;;;;;4415605;28;659117;-67
2021/05/02 09:55:53;;;;;;;45.90;23.13;;;11.90;99.90;;;;;;4430988;28;658731;-67
2021/05/02 09:58:40;;;;;;;46.47;22.93;;;11.90;99.90;;;;;;4467908;28;659198;-68
2021/05/02 10:01:27;;;;;;;47.93;26.00;;;12.00;99.90;;;;;;4441932;28;658603;-70
2021/05/02 10:04:15;;;;;;;46.90;24.30;;;12.10;99.90;;;;;;4463980;28;659436;-67
2021/05/02 10:07:05;;;;;;;36.43;19.53;;;12.00;99.90;;;;;;4449037;28;658635;-70
2021/05/02 10:09:52;;;;;;;42.33;25.70;;;12.10;99.90;;;;;;4429486;28;659257;-70
2021/05/02 10:12:41;;;;;;;38.13;20.63;;;12.10;99.90;;;;;;4452206;28;658811;-67
2021/05/02 10:15:28;;;;;;;40.37;23.57;;;12.00;99.90;;;;;;4428637;28;658412;-67
2021/05/02 10:18:15;;;;;;;38.43;23.77;;;11.90;99.90;;;;;;4455642;28;659224;-68
2021/05/02 10:21:04;;;;;;;30.47;18.07;;;11.80;99.90;;;;;;4436565;28;659353;-68
2021/05/02 10:23:53;;;;;;;28.27;17.20;;;11.80;99.90;;;;;;4462947;28;658851;-67
2021/05/02 10:26:40;;;;;;;22.65;13.52;;;11.90;99.90;;;;;;4422279;28;660555;-71
2021/05/02 10:29:28;;;;;;;21.67;13.97;;;12.00;99.90;;;;;;4440176;28;659130;-69
2021/05/02 10:32:15;;;;;;;16.47;10.37;;;12.20;99.90;;;;;;4454707;28;659804;-67
2021/05/02 10:35:10;;;;;;;14.90;9.00;;;12.20;99.90;;;;;;4440549;28;659217;-67
2021/05/02 10:37:57;;;;;;;16.00;9.70;;;12.00;99.90;;;;;;4446643;28;657599;-70
2021/05/02 10:40:45;;;;;;;12.83;6.60;;;11.80;99.90;;;;;;4467242;28;657546;-71
2021/05/02 10:43:32;;;;;;;10.07;6.60;;;11.70;99.90;;;;;;4437899;28;658323;-66
2021/05/02 10:46:52;;;;;;;8.03;4.57;;;11.70;99.90;;;;;;4448219;28;658356;-71
2021/05/02 10:49:56;;;;;;;6.80;4.63;;;11.40;99.90;;;;;;4408787;28;656797;-67
2021/05/02 10:52:45;;;;;;;6.47;3.83;;;11.20;99.90;;;;;;4437867;28;656933;-69
2021/05/02 10:55:52;;;;;;;5.20;3.42;;;11.00;99.90;;;;;;4440881;28;656728;-67
2021/05/02 10:58:40;;;;;;;4.43;2.60;;;10.70;99.90;;;;;;4417115;28;657422;-68
2021/05/02 11:01:27;;;;;;;7.07;3.00;;;10.50;99.90;;;;;;4449936;28;657118;-67
2021/05/02 11:04:15;;;;;;;6.30;3.57;;;10.40;99.90;;;;;;4458811;28;657796;-67
2021/05/02 11:07:03;;;;;;;5.80;3.10;;;10.40;99.90;;;;;;4456829;28;656180;-67
2021/05/02 11:09:56;;;;;;;4.10;2.83;;;10.50;99.90;;;;;;4425689;28;657651;-67
2021/05/02 11:12:46;;;;;;;7.03;2.90;;;10.50;99.90;;;;;;4403843;28;656782;-70
2021/05/02 11:15:36;;;;;;;5.47;2.67;;;10.50;99.90;;;;;;4443954;28;656122;-70
2021/05/02 11:18:24;;;;;;;5.20;2.78;;;10.60;99.90;;;;;;4429896;28;656525;-70
2021/05/02 11:21:11;;;;;;;5.73;3.30;;;10.50;99.90;;;;;;4454237;28;657019;-66
2021/05/02 11:24:00;;;;;;;5.23;3.37;;;10.30;99.90;;;;;;4430748;28;656418;-68
2021/05/02 11:26:54;;;;;;;5.90;3.13;;;10.10;99.90;;;;;;4460106;28;656339;-67
2021/05/02 11:30:14;;;;;;;6.90;3.80;;;9.90;99.90;;;;;;4426459;28;657171;-68
2021/05/02 11:33:01;;;;;;;8.30;3.38;;;9.80;99.90;;;;;;4429119;28;655409;-71
2021/05/02 11:35:56;;;;;;;4.70;2.90;;;9.50;99.90;;;;;;4440909;28;655496;-70
2021/05/02 11:38:45;;;;;;;4.07;2.10;;;9.30;99.90;;;;;;4408045;28;656246;-66
2021/05/02 11:42:00;;;;;;;4.20;2.60;;;9.00;99.90;;;;;;4447409;28;655143;-66
2021/05/02 11:44:53;;;;;;;4.43;2.67;;;8.80;99.90;;;;;;4424189;28;656309;-67
2021/05/02 11:47:40;;;;;;;6.60;3.30;;;8.60;99.90;;;;;;4437872;28;656057;-66
2021/05/02 11:50:27;;;;;;;6.33;3.37;;;8.50;99.90;;;;;;4458986;28;655526;-67
2021/05/02 11:53:14;;;;;;;4.35;2.75;;;8.40;99.90;;;;;;4464014;28;656208;-66
2021/05/02 11:56:02;;;;;;;5.20;2.93;;;8.30;99.90;;;;;;4450468;28;656135;-67
2021/05/02 11:58:50;;;;;;;4.93;2.67;;;8.20;99.90;;;;;;4443038;28;655831;-71
2021/05/02 12:01:40;;;;;;;8.77;3.17;;;8.10;99.90;;;;;;4439993;28;656282;-69
2021/05/02 12:04:27;;;;;;;6.57;3.40;;;8.00;99.90;;;;;;4438479;28;655944;-70
2021/05/02 12:07:15;;;;;;;6.47;3.53;;;8.00;99.90;;;;;;4456691;28;656635;-71
2021/05/02 12:10:16;;;;;;;7.43;3.77;;;7.90;99.90;;;;;;4456723;28;656262;-68
2021/05/02 12:13:05;;;;;;;5.80;3.27;;;7.90;99.90;;;;;;4434339;28;655398;-68
2021/05/02 12:16:06;;;;;;;7.47;4.03;;;7.90;99.90;;;;;;4450969;28;656740;-68
2021/05/02 12:18:56;;;;;;;5.50;3.33;;;8.00;99.90;;;;;;4438354;28;656071;-67
2021/05/02 12:21:45;;;;;;;6.47;3.47;;;8.00;99.90;;;;;;4437622;28;655722;-71
2021/05/02 12:24:33;;;;;;;6.67;3.40;;;8.10;99.90;;;;;;4430297;28;655792;-70
2021/05/02 12:27:20;;;;;;;7.40;4.00;;;8.10;99.90;;;;;;4451696;28;657217;-71
2021/05/02 12:30:09;;;;;;;4.47;3.07;;;8.20;99.90;;;;;;4452060;28;655683;-70
2021/05/02 12:32:56;;;;;;;4.53;2.90;;;8.20;99.90;;;;;;4461140;28;655159;-70
2021/05/02 12:35:44;;;;;;;4.53;2.53;;;8.20;99.90;;;;;;4436255;28;656107;-70
2021/05/02 12:38:31;;;;;;;5.27;3.07;;;8.20;99.90;;;;;;4453397;28;655525;-72
2021/05/02 12:41:19;;;;;;;5.35;2.65;;;8.10;99.90;;;;;;4438541;28;655989;-70
2021/05/02 12:44:17;;;;;;;7.80;3.10;;;8.10;99.90;;;;;;4465123;28;654920;-70
2021/05/02 12:47:04;;;;;;;8.13;2.87;;;8.20;99.90;;;;;;4422186;28;656197;-70
2021/05/02 12:49:52;;;;;;;5.25;2.90;;;8.10;99.90;;;;;;4458765;28;655131;-70
2021/05/02 12:52:40;;;;;;;7.83;3.30;;;8.20;99.90;;;;;;4438007;28;656833;-69
2021/05/02 12:55:28;;;;;;;6.57;3.17;;;8.20;99.90;;;;;;4446767;28;655857;-69
2021/05/02 12:58:15;;;;;;;3.53;2.47;;;8.20;99.90;;;;;;4458653;28;656461;-71
2021/05/02 13:01:05;;;;;;;5.50;3.13;;;8.10;99.90;;;;;;4454206;28;655151;-68
2021/05/02 13:03:55;;;;;;;3.92;2.20;;;8.10;99.90;;;;;;4441109;28;655891;-68
2021/05/02 13:06:45;;;;;;;6.37;2.80;;;8.20;99.90;;;;;;4459417;28;655718;-67
2021/05/02 13:09:39;;;;;;;5.83;2.67;;;8.20;99.90;;;;;;4434029;28;656451;-67
2021/05/02 13:12:27;;;;;;;3.27;1.90;;;8.20;99.90;;;;;;4430834;28;655867;-66
2021/05/02 13:15:16;;;;;;;3.80;2.93;;;8.30;99.90;;;;;;4441229;28;656469;-67
2021/05/02 13:18:08;;;;;;;4.90;2.10;;;8.60;99.90;;;;;;4437590;28;655491;-67
2021/05/02 13:20:57;;;;;;;6.20;2.67;;;9.10;99.90;;;;;;4436804;28;656564;-67
2021/05/02 13:23:44;;;;;;;2.53;1.67;;;9.50;99.90;;;;;;4439155;28;655729;-68
2021/05/02 13:26:40;;;;;;;2.80;1.90;;;9.50;99.90;;;;;;4457741;28;655342;-67
2021/05/02 13:29:27;;;;;;;6.53;2.03;;;9.50;99.90;;;;;;4448596;28;655617;-67
2021/05/02 13:32:14;;;;;;;3.27;1.77;;;9.40;99.90;;;;;;4463683;28;655271;-71
2021/05/02 13:35:01;;;;;;;4.13;2.00;;;9.50;99.90;;;;;;4460176;28;656036;-72
2021/05/02 13:37:48;;;;;;;3.30;1.87;;;9.80;99.90;;;;;;4443244;28;655661;-69
2021/05/02 13:40:36;;;;;;;1.80;1.23;;;9.70;99.90;;;;;;4451798;28;656420;-69
2021/05/02 13:43:25;;;;;;;2.90;1.80;;;9.50;99.90;;;;;;4440919;28;655114;-69
2021/05/02 13:46:12;;;;;;;2.47;1.50;;;9.50;99.90;;;;;;4451473;28;655555;-67
2021/05/02 13:48:59;;;;;;;8.87;1.90;;;10.10;99.90;;;;;;4439307;28;655212;-70
2021/05/02 13:51:46;;;;;;;4.87;1.53;;;9.90;99.90;;;;;;4461764;28;657019;-68
2021/05/02 13:54:33;;;;;;;2.47;1.53;;;9.90;99.90;;;;;;4441857;28;655717;-69
2021/05/02 13:57:20;;;;;;;2.80;1.57;;;9.30;99.90;;;;;;4463326;28;656615;-69
2021/05/02 14:00:11;;;;;;;3.83;1.50;;;9.30;99.90;;;;;;4446372;28;655142;-69
2021/05/02 14:02:59;;;;;;;3.17;1.70;;;8.90;99.90;;;;;;4434526;28;655747;-70
2021/05/02 14:05:46;;;;;;;4.27;1.67;;;8.70;99.90;;;;;;4451240;28;655502;-67
2021/05/02 14:08:33;;;;;;;3.70;1.90;;;8.40;99.90;;;;;;4445802;28;655620;-70
2021/05/02 14:11:20;;;;;;;2.73;1.50;;;8.20;99.90;;;;;;4460731;28;656275;-71
2021/05/02 14:14:07;;;;;;;3.67;2.07;;;8.10;99.90;;;;;;4446463;28;655419;-70
2021/05/02 14:16:55;;;;;;;4.30;1.77;;;8.10;99.90;;;;;;4463706;28;656153;-67